createdAt,value
2023-04-11T00:02:13.275Z,94734.88
2023-04-11T00:04:41.381Z,94733.63
2023-04-11T00:07:09.259Z,94713.75
2023-04-11T00:09:37.035Z,94714.31
2023-04-11T00:12:04.987Z,94704.00
2023-04-11T00:14:34.397Z,94698.06
2023-04-11T00:17:02.147Z,94704.31
2023-04-11T00:19:33.396Z,94696.47
2023-04-11T00:22:01.492Z,94698.13
2023-04-11T00:24:29.246Z,94703.31
2023-04-11T00:26:58.055Z,94700.91
2023-04-11T00:29:25.706Z,94695.72
2023-04-11T00:31:55.468Z,94693.22
2023-04-11T00:34:23.268Z,94672.03
2023-04-11T00:36:52.355Z,94670.97
2023-04-11T00:39:21.229Z,94659.56
2023-04-11T00:41:48.853Z,94644.03
2023-04-11T00:44:16.721Z,94633.78
2023-04-11T00:46:46.119Z,94636.84
2023-04-11T00:49:14.151Z,94629.22
2023-04-11T00:51:41.735Z,94630.28
2023-04-11T00:54:12.144Z,94624.34
2023-04-11T00:56:39.867Z,94623.28
2023-04-11T00:59:07.520Z,94626.56
2023-04-11T01:01:36.396Z,94627.69
2023-04-11T01:04:04.676Z,94634.84
2023-04-11T01:06:33.647Z,94629.94
2023-04-11T01:09:01.321Z,94633.22
2023-04-11T01:11:30.664Z,94637.34
2023-04-11T01:13:58.274Z,94646.94
2023-04-11T01:16:25.971Z,94643.34
2023-04-11T01:18:53.912Z,94643.09
2023-04-11T01:21:22.319Z,94633.59
2023-04-11T01:23:52.798Z,94623.53
2023-04-11T01:26:20.719Z,94623.00
2023-04-11T01:28:48.330Z,94624.38
2023-04-11T01:31:16.076Z,94612.16
2023-04-11T01:33:43.828Z,94604.81
2023-04-11T01:36:11.792Z,94602.84
2023-04-11T01:38:39.397Z,94602.81
2023-04-11T01:41:09.454Z,94594.03
2023-04-11T01:43:37.200Z,94586.38
2023-04-11T01:46:04.948Z,94580.63
2023-04-11T01:48:35.084Z,94575.16
2023-04-11T01:51:02.736Z,94589.03
2023-04-11T01:53:30.341Z,94585.50
2023-04-11T01:55:58.005Z,94580.31
2023-04-11T01:58:26.984Z,94565.09
2023-04-11T02:00:54.630Z,94550.91
2023-04-11T02:03:22.617Z,94556.09
2023-04-11T02:05:50.352Z,94543.63
2023-04-11T02:08:17.951Z,94552.63
2023-04-11T02:10:45.727Z,94550.41
2023-04-11T02:13:13.364Z,94545.25
2023-04-11T02:15:42.345Z,94527.09
2023-04-11T02:18:11.256Z,94538.53
2023-04-11T02:20:40.516Z,94535.84
2023-04-11T02:23:08.161Z,94539.38
2023-04-11T02:25:35.873Z,94529.03
2023-04-11T02:28:04.225Z,94528.53
2023-04-11T02:30:33.396Z,94526.09
2023-04-11T02:33:03.142Z,94519.56
2023-04-11T02:35:30.990Z,94526.13
2023-04-11T02:37:58.923Z,94523.41
2023-04-11T02:40:26.546Z,94512.84
2023-04-11T02:42:54.177Z,94504.91
2023-04-11T02:45:21.984Z,94507.06
2023-04-11T02:47:49.622Z,94507.03
2023-04-11T02:50:18.874Z,94512.22
2023-04-11T02:52:47.920Z,94502.16
2023-04-11T02:55:15.674Z,94500.22
2023-04-11T02:57:43.317Z,94505.38
2023-04-11T03:00:11.965Z,94496.09
2023-04-11T03:02:39.710Z,94500.47
2023-04-11T03:05:08.924Z,94492.28
2023-04-11T03:07:38.495Z,94487.91
2023-04-11T03:10:07.302Z,94490.66
2023-04-11T03:12:35.010Z,94493.94
2023-04-11T03:15:02.704Z,94489.59
2023-04-11T03:17:30.338Z,94494.03
2023-04-11T03:19:57.994Z,94491.84
2023-04-11T03:22:25.968Z,94487.47
2023-04-11T03:24:54.998Z,94479.28
2023-04-11T03:27:22.610Z,94472.81
2023-04-11T03:29:50.271Z,94473.09
2023-04-11T03:32:17.926Z,94468.75
2023-04-11T03:34:45.515Z,94460.56
2023-04-11T03:37:13.158Z,94464.09
2023-04-11T03:39:40.815Z,94465.78
2023-04-11T03:42:09.820Z,94466.88
2023-04-11T03:44:37.567Z,94461.97
2023-04-11T03:47:05.385Z,94470.13
2023-04-11T03:49:33.135Z,94463.88
2023-04-11T03:52:00.816Z,94462.78
2023-04-11T03:54:28.480Z,94452.97
2023-04-11T03:56:57.205Z,94453.50
2023-04-11T03:59:26.220Z,94450.50
2023-04-11T04:01:53.960Z,94452.09
2023-04-11T04:04:21.743Z,94439.84
2023-04-11T04:06:49.491Z,94437.13
2023-04-11T04:09:17.163Z,94439.84
2023-04-11T04:11:44.753Z,94440.13
2023-04-11T04:14:12.388Z,94443.94
2023-04-11T04:16:41.459Z,94441.75
2023-04-11T04:19:09.512Z,94443.38
2023-04-11T04:21:38.108Z,94451.84
2023-04-11T04:24:06.214Z,94461.66
2023-04-11T04:26:33.839Z,94467.13
2023-04-11T04:29:04.653Z,94448.84
2023-04-11T04:31:33.806Z,94454.25
2023-04-11T04:34:08.706Z,94464.09
2023-04-11T04:36:46.131Z,94472.31
2023-04-11T04:39:17.468Z,94484.31
2023-04-11T04:41:46.299Z,94499.03
2023-04-11T04:44:15.853Z,94503.66
2023-04-11T04:46:43.752Z,94516.25
2023-04-11T04:49:12.760Z,94510.56
2023-04-11T04:51:41.255Z,94526.13
2023-04-11T04:54:08.904Z,94510.03
2023-04-11T04:56:36.539Z,94513.31
2023-04-11T04:59:04.374Z,94508.38
2023-04-11T05:01:33.013Z,94528.28
2023-04-11T05:04:01.748Z,94516.50
2023-04-11T05:06:32.520Z,94518.13
2023-04-11T05:09:01.452Z,94517.00
2023-04-11T05:11:30.061Z,94524.06
2023-04-11T05:13:57.838Z,94504.06
2023-04-11T05:16:25.892Z,94523.16
2023-04-11T05:18:53.665Z,94530.22
2023-04-11T05:21:22.272Z,94523.38
2023-04-11T05:23:51.329Z,94520.34
2023-04-11T05:26:18.959Z,94518.38
2023-04-11T05:28:46.974Z,94528.91
2023-04-11T05:31:14.735Z,94532.13
2023-04-11T05:33:43.162Z,94522.19
2023-04-11T05:36:13.832Z,94519.44
2023-04-11T05:38:41.832Z,94525.28
2023-04-11T05:41:11.079Z,94524.94
2023-04-11T05:43:38.912Z,94529.50
2023-04-11T05:46:07.861Z,94535.19
2023-04-11T05:48:35.851Z,94523.16
2023-04-11T05:51:03.481Z,94512.25
2023-04-11T05:53:31.910Z,94504.38
2023-04-11T05:55:59.531Z,94515.19
2023-04-11T05:58:29.750Z,94518.19
2023-04-11T06:00:59.453Z,94519.56
2023-04-11T06:03:27.517Z,94514.13
2023-04-11T06:05:55.428Z,94527.22
2023-04-11T06:08:23.129Z,94534.03
2023-04-11T06:10:50.726Z,94526.47
2023-04-11T06:13:18.330Z,94537.09
2023-04-11T06:15:47.376Z,94545.59
2023-04-11T06:18:15.056Z,94546.06
2023-04-11T06:20:42.641Z,94551.28
2023-04-11T06:23:10.250Z,94561.91
2023-04-11T06:25:37.879Z,94552.66
2023-04-11T06:28:05.672Z,94554.81
2023-04-11T06:30:33.284Z,94568.03
2023-04-11T06:33:02.319Z,94568.28
2023-04-11T06:35:29.964Z,94569.53
2023-04-11T06:37:57.630Z,94571.38
2023-04-11T06:40:25.296Z,94565.00
2023-04-11T06:42:52.915Z,94560.44
2023-04-11T06:45:20.576Z,94562.06
2023-04-11T06:47:48.309Z,94559.72
2023-04-11T06:50:17.384Z,94561.56
2023-04-11T06:52:45.000Z,94573.50
2023-04-11T06:55:15.363Z,94584.09
2023-04-11T06:57:44.289Z,94584.31
2023-04-11T07:00:13.579Z,94574.09
2023-04-11T07:02:41.638Z,94600.53
2023-04-11T07:05:10.300Z,94606.38
2023-04-11T07:07:39.709Z,94601.06
2023-04-11T07:10:08.584Z,94600.06
2023-04-11T07:12:36.237Z,94601.69
2023-04-11T07:15:04.664Z,94602.16
2023-04-11T07:17:32.408Z,94601.44
2023-04-11T07:20:00.038Z,94611.56
2023-04-11T07:22:29.333Z,94619.44
2023-04-11T07:24:58.485Z,94617.47
2023-04-11T07:27:26.607Z,94627.00
2023-04-11T07:29:54.304Z,94629.16
2023-04-11T07:32:21.952Z,94633.53
2023-04-11T07:34:49.604Z,94632.53
2023-04-11T07:37:18.078Z,94637.47
2023-04-11T07:39:45.670Z,94644.81
2023-04-11T07:42:14.635Z,94653.19
2023-04-11T07:44:42.293Z,94650.31
2023-04-11T07:47:09.894Z,94657.66
2023-04-11T07:49:37.567Z,94661.56
2023-04-11T07:52:05.231Z,94661.09
2023-04-11T07:54:32.903Z,94663.31
2023-04-11T07:57:01.311Z,94668.81
2023-04-11T07:59:30.362Z,94677.72
2023-04-11T08:02:02.055Z,94691.38
2023-04-11T08:04:32.457Z,94682.09
2023-04-11T08:07:00.460Z,94680.59
2023-04-11T08:09:28.518Z,94683.66
2023-04-11T08:11:56.774Z,94696.66
2023-04-11T08:14:24.619Z,94702.94
2023-04-11T08:16:53.743Z,94700.09
2023-04-11T08:19:22.129Z,94697.75
2023-04-11T08:21:49.799Z,94698.78
2023-04-11T08:24:17.486Z,94698.91
2023-04-11T08:26:45.186Z,94707.88
2023-04-11T08:29:12.923Z,94713.78
2023-04-11T08:31:43.444Z,94724.16
2023-04-11T08:34:13.014Z,94725.44
2023-04-11T08:36:41.393Z,94720.84
2023-04-11T08:39:09.096Z,94716.72
2023-04-11T08:41:36.895Z,94719.19
2023-04-11T08:44:04.685Z,94730.03
2023-04-11T08:46:33.768Z,94732.63
2023-04-11T08:49:01.886Z,94721.41
2023-04-11T08:51:31.492Z,94725.41
2023-04-11T08:54:02.187Z,94728.47
2023-04-11T08:56:29.933Z,94736.13
2023-04-11T08:58:57.638Z,94731.06
2023-04-11T09:01:27.035Z,94730.34
2023-04-11T09:03:54.959Z,94732.13
2023-04-11T09:06:23.172Z,94744.72
2023-04-11T09:08:52.250Z,94742.25
2023-04-11T09:11:19.893Z,94731.00
2023-04-11T09:13:48.601Z,94732.84
2023-04-11T09:16:16.529Z,94736.28
2023-04-11T09:18:46.340Z,94742.41
2023-04-11T09:21:15.525Z,94763.16
2023-04-11T09:23:43.256Z,94759.69
2023-04-11T09:26:13.772Z,94758.88
2023-04-11T09:28:42.910Z,94757.75
2023-04-11T09:31:12.983Z,94752.91
2023-04-11T09:33:41.315Z,94761.41
2023-04-11T09:36:22.217Z,94757.75
2023-04-11T09:38:49.884Z,94755.59
2023-04-11T09:41:30.798Z,94766.13
2023-04-11T09:43:58.719Z,94767.41
2023-04-11T09:46:26.591Z,94780.75
2023-04-11T09:48:56.856Z,94778.28
2023-04-11T09:51:35.925Z,94776.75
2023-04-11T09:54:05.485Z,94785.03
2023-04-11T09:56:35.539Z,94790.00
2023-04-11T09:59:04.368Z,94799.38
2023-04-11T10:01:32.201Z,94799.38
2023-04-11T10:04:00.905Z,94792.88
2023-04-11T10:06:33.646Z,94792.63
2023-04-11T10:09:08.023Z,94797.00
2023-04-11T10:11:37.075Z,94788.53
2023-04-11T10:14:04.810Z,94799.13
2023-04-11T10:16:34.152Z,94797.94
2023-04-11T10:19:23.760Z,94783.34
2023-04-11T10:21:51.579Z,94785.22
2023-04-11T10:24:21.172Z,94790.41
2023-04-11T10:26:54.962Z,94798.88
2023-04-11T10:29:52.485Z,94811.66
2023-04-11T10:32:22.312Z,94817.06
2023-04-11T10:35:32.926Z,94814.00
2023-04-11T10:38:00.670Z,94822.72
2023-04-11T10:40:28.359Z,94824.16
2023-04-11T10:42:57.524Z,94820.47
2023-04-11T10:45:27.072Z,94816.34
2023-04-11T10:48:11.568Z,94815.16
2023-04-11T10:50:43.872Z,94818.56
2023-04-11T10:53:33.811Z,94815.41
2023-04-11T10:56:02.100Z,94819.97
2023-04-11T10:58:38.308Z,94831.19
2023-04-11T11:01:32.360Z,94818.66
2023-04-11T11:04:10.938Z,94818.63
2023-04-11T11:06:47.541Z,94814.13
2023-04-11T11:09:23.233Z,94814.69
2023-04-11T11:12:05.744Z,94824.31
2023-04-11T11:14:34.829Z,94815.94
2023-04-11T11:17:03.060Z,94821.69
2023-04-11T11:19:31.125Z,94818.41
2023-04-11T11:22:03.393Z,94818.16
2023-04-11T11:24:31.598Z,94825.34
2023-04-11T11:26:59.477Z,94827.13
2023-04-11T11:29:35.962Z,94819.91
2023-04-11T11:32:04.280Z,94823.53
2023-04-11T11:34:32.944Z,94812.69
2023-04-11T11:37:04.342Z,94817.53
2023-04-11T11:39:33.887Z,94834.59
2023-04-11T11:42:01.876Z,94851.16
2023-04-11T11:44:30.786Z,94850.75
2023-04-11T11:47:03.380Z,94835.78
2023-04-11T11:49:45.151Z,94840.91
2023-04-11T11:52:12.985Z,94844.22
2023-04-11T11:54:47.357Z,94844.56
2023-04-11T11:57:22.607Z,94842.13
2023-04-11T11:59:54.231Z,94840.44
2023-04-11T12:02:24.280Z,94831.88
2023-04-11T12:04:52.130Z,94838.28
2023-04-11T12:07:22.141Z,94831.97
2023-04-11T12:09:49.929Z,94830.41
2023-04-11T12:12:18.006Z,94836.84
2023-04-11T12:14:53.646Z,94831.25
2023-04-11T12:17:22.782Z,94826.44
2023-04-11T12:19:50.464Z,94826.00
2023-04-11T12:22:18.128Z,94816.84
2023-04-11T12:24:45.778Z,94815.81
2023-04-11T12:27:13.541Z,94833.56
2023-04-11T12:29:41.175Z,94824.59
2023-04-11T12:32:08.800Z,94827.88
2023-04-11T12:34:37.790Z,94838.94
2023-04-11T12:37:05.395Z,94835.59
2023-04-11T12:39:33.051Z,94821.03
2023-04-11T12:42:00.668Z,94825.22
2023-04-11T12:44:28.301Z,94834.63
2023-04-11T12:46:56.147Z,94828.38
2023-04-11T12:49:23.881Z,94823.16
2023-04-11T12:51:52.831Z,94831.16
2023-04-11T12:54:20.557Z,94837.56
2023-04-11T12:56:48.184Z,94843.91
2023-04-11T12:59:16.668Z,94837.31
2023-04-11T13:01:44.557Z,94834.38
2023-04-11T13:04:12.411Z,94830.13
2023-04-11T13:06:40.934Z,94836.16
2023-04-11T13:09:13.238Z,94826.59
2023-04-11T13:11:41.467Z,94837.25
2023-04-11T13:14:09.202Z,94824.13
2023-04-11T13:16:36.999Z,94827.91
2023-04-11T13:19:04.676Z,94814.47
2023-04-11T13:21:32.549Z,94808.13
2023-04-11T13:24:00.348Z,94804.63
2023-04-11T13:26:30.110Z,94800.88
2023-04-11T13:28:58.039Z,94802.31
2023-04-11T13:31:26.715Z,94807.97
2023-04-11T13:33:54.547Z,94793.59
2023-04-11T13:36:22.194Z,94790.97
2023-04-11T13:38:51.309Z,94790.47
2023-04-11T13:41:18.923Z,94804.34
2023-04-11T13:43:48.173Z,94792.34
2023-04-11T13:46:16.773Z,94797.47
2023-04-11T13:48:44.566Z,94784.75
2023-04-11T13:51:12.562Z,94780.53
2023-04-11T13:53:40.399Z,94780.69
2023-04-11T13:56:08.946Z,94779.56
2023-04-11T13:58:38.107Z,94783.81
2023-04-11T14:01:08.163Z,94780.59
2023-04-11T14:03:36.013Z,94773.25
2023-04-11T14:06:04.183Z,94779.81
2023-04-11T14:08:31.950Z,94772.34
2023-04-11T14:10:59.609Z,94780.69
2023-04-11T14:13:27.406Z,94779.03
2023-04-11T14:18:30.290Z,94786.13
2023-04-11T14:21:00.696Z,94786.06
2023-04-11T14:23:29.106Z,94778.78
2023-04-11T14:25:56.766Z,94786.63
2023-04-11T14:28:26.602Z,94784.38
2023-04-11T14:30:54.751Z,94784.03
2023-04-11T14:33:23.012Z,94787.38
2023-04-11T14:35:52.586Z,94784.53
2023-04-11T14:38:20.529Z,94781.69
2023-04-11T14:40:48.166Z,94782.34
2023-04-11T14:43:16.752Z,94775.31
2023-04-11T14:45:44.435Z,94774.78
2023-04-11T14:48:12.130Z,94789.06
2023-04-11T14:50:39.749Z,94783.94
2023-04-11T14:53:08.950Z,94781.00
2023-04-11T14:55:39.519Z,94779.59
2023-04-11T14:58:07.334Z,94784.31
2023-04-11T15:00:35.272Z,94782.53
2023-04-11T15:03:03.250Z,94793.84
2023-04-11T15:05:31.099Z,94781.78
2023-04-11T15:07:58.724Z,94785.59
2023-04-11T15:10:27.720Z,94786.28
2023-04-11T15:12:55.330Z,94789.09
2023-04-11T15:15:23.792Z,94784.88
2023-04-11T15:18:24.524Z,94793.78
2023-04-11T15:20:52.496Z,94790.16
2023-04-11T15:23:21.084Z,94783.56
2023-04-11T15:25:53.464Z,94783.41
2023-04-11T15:28:21.317Z,94777.47
2023-04-11T15:30:50.931Z,94782.16
2023-04-11T15:33:19.341Z,94782.16
2023-04-11T15:35:47.202Z,94794.59
2023-04-11T15:38:15.553Z,94784.22
2023-04-11T15:40:43.187Z,94779.19
2023-04-11T15:43:12.262Z,94781.34
2023-04-11T15:45:40.454Z,94782.25
2023-04-11T15:48:08.159Z,94780.09
2023-04-11T15:50:35.963Z,94778.47
2023-04-11T15:53:03.668Z,94785.53
2023-04-11T15:55:31.700Z,94785.03
2023-04-11T15:57:59.496Z,94775.19
2023-04-11T16:00:28.735Z,94770.72
2023-04-11T16:03:02.544Z,94771.44
2023-04-11T16:05:31.342Z,94766.25
2023-04-11T16:07:59.228Z,94764.53
2023-04-11T16:10:26.963Z,94763.94
2023-04-11T16:12:54.572Z,94768.38
2023-04-11T16:15:22.313Z,94763.75
2023-04-11T16:17:51.395Z,94768.88
2023-04-11T16:20:21.193Z,94759.56
2023-04-11T16:22:49.292Z,94761.69
2023-04-11T16:25:20.705Z,94754.13
2023-04-11T16:27:48.459Z,94754.53
2023-04-11T16:30:16.903Z,94756.50
2023-04-11T16:32:44.850Z,94755.19
2023-04-11T16:35:13.959Z,94761.19
2023-04-11T16:37:41.569Z,94756.25
2023-04-11T16:40:11.104Z,94762.53
2023-04-11T16:42:38.983Z,94765.41
2023-04-11T16:45:08.818Z,94765.97
2023-04-11T16:47:36.680Z,94756.63
2023-04-11T16:50:05.772Z,94759.34
2023-04-11T16:52:34.916Z,94759.59
2023-04-11T16:55:03.490Z,94768.59
2023-04-11T16:57:33.194Z,94767.34
2023-04-11T17:00:06.330Z,94766.44
2023-04-11T17:02:34.069Z,94752.53
2023-04-11T17:05:01.813Z,94752.09
2023-04-11T17:07:29.719Z,94759.06
2023-04-11T17:09:58.764Z,94753.97
2023-04-11T17:12:27.106Z,94761.56
2023-04-11T17:14:55.936Z,94760.66
2023-04-11T17:17:23.756Z,94761.22
2023-04-11T17:19:51.527Z,94760.03
2023-04-11T17:22:19.256Z,94762.75
2023-04-11T17:24:47.106Z,94760.53
2023-04-11T17:27:16.282Z,94755.59
2023-04-11T17:29:43.965Z,94753.84
2023-04-11T17:32:11.944Z,94757.03
2023-04-11T17:34:39.617Z,94763.31
2023-04-11T17:37:08.449Z,94753.06
2023-04-11T17:39:37.201Z,94760.50
2023-04-11T17:42:05.436Z,94757.09
2023-04-11T17:44:34.475Z,94751.09
2023-04-11T17:47:02.158Z,94755.25
2023-04-11T17:49:29.824Z,94751.72
2023-04-11T17:51:59.653Z,94749.72
2023-04-11T17:54:27.587Z,94750.50
2023-04-11T17:56:56.180Z,94755.00
2023-04-11T17:59:24.137Z,94747.38
2023-04-11T18:01:55.893Z,94749.72
2023-04-11T18:04:23.928Z,94756.94
2023-04-11T18:06:51.680Z,94755.75
2023-04-11T18:09:20.299Z,94752.22
2023-04-11T18:11:47.933Z,94757.28
2023-04-11T18:14:15.656Z,94762.09
2023-04-11T18:16:43.318Z,94766.34
2023-04-11T18:19:12.620Z,94761.97
2023-04-11T18:21:40.992Z,94754.34
2023-04-11T18:24:09.005Z,94769.88
2023-04-11T18:26:36.608Z,94765.75
2023-04-11T18:29:04.356Z,94774.59
2023-04-11T18:31:34.925Z,94767.63
2023-04-11T18:34:03.556Z,94766.56
2023-04-11T18:36:33.088Z,94769.00
2023-04-11T18:39:00.765Z,94774.88
2023-04-11T18:41:28.378Z,94775.13
2023-04-11T18:43:56.046Z,94771.81
2023-04-11T18:46:23.722Z,94780.41
2023-04-11T18:48:51.474Z,94784.03
2023-04-11T18:51:20.619Z,94786.50
2023-04-11T18:53:49.657Z,94784.03
2023-04-11T18:56:17.746Z,94776.59
2023-04-11T18:58:46.891Z,94778.72
2023-04-11T19:01:17.660Z,94776.81
2023-04-11T19:03:46.545Z,94776.81
2023-04-11T19:06:14.612Z,94765.03
2023-04-11T19:08:42.278Z,94767.63
2023-04-11T19:11:11.243Z,94765.38
2023-04-11T19:13:38.885Z,94765.69
2023-04-11T19:16:07.204Z,94764.50
2023-04-11T19:18:34.910Z,94761.44
2023-04-11T19:21:02.749Z,94753.19
2023-04-11T19:23:30.390Z,94757.59
2023-04-11T19:26:00.534Z,94771.00
2023-04-11T19:28:29.580Z,94764.84
2023-04-11T19:30:57.188Z,94777.78
2023-04-11T19:33:26.087Z,94766.56
2023-04-11T19:35:54.233Z,94772.84
2023-04-11T19:38:22.307Z,94767.28
2023-04-11T19:40:49.973Z,94770.66
2023-04-11T19:43:17.772Z,94759.63
2023-04-11T19:45:46.946Z,94767.94
2023-04-11T19:48:16.128Z,94760.06
2023-04-11T19:50:44.043Z,94753.22
2023-04-11T19:53:11.700Z,94748.03
2023-04-11T19:55:39.291Z,94751.81
2023-04-11T19:58:06.945Z,94741.44
2023-04-11T20:00:36.183Z,94738.00
2023-04-11T20:03:07.533Z,94730.31
2023-04-11T20:05:35.974Z,94734.53
2023-04-11T20:08:03.607Z,94734.53
2023-04-11T20:10:31.648Z,94723.09
2023-04-11T20:12:59.234Z,94730.19
2023-04-11T20:15:27.009Z,94728.97
2023-04-11T20:17:54.646Z,94722.97
2023-04-11T20:20:27.914Z,94730.47
2023-04-11T20:22:55.693Z,94717.78
2023-04-11T20:25:23.786Z,94719.66
2023-04-11T20:27:51.418Z,94721.16
2023-04-11T20:30:19.155Z,94721.63
2023-04-11T20:32:46.975Z,94728.88
2023-04-11T20:35:14.932Z,94726.41
2023-04-11T20:37:44.408Z,94728.53
2023-04-11T20:40:14.155Z,94721.94
2023-04-11T20:42:43.002Z,94715.91
2023-04-11T20:45:12.342Z,94719.44
2023-04-11T20:47:40.307Z,94732.59
2023-04-11T20:50:10.192Z,94728.22
2023-04-11T20:52:38.741Z,94727.19
2023-04-11T20:55:09.536Z,94715.16
2023-04-11T20:57:37.375Z,94713.75
2023-04-11T21:00:12.092Z,94711.28
2023-04-11T21:02:41.519Z,94713.44
2023-04-11T21:05:09.617Z,94710.44
2023-04-11T21:07:37.816Z,94716.97
2023-04-11T21:10:08.041Z,94707.84
2023-04-11T21:12:35.920Z,94706.66
2023-04-11T21:15:04.222Z,94703.97
2023-04-11T21:17:33.275Z,94701.25
2023-04-11T21:20:00.967Z,94697.72
2023-04-11T21:22:28.638Z,94692.78
2023-04-11T21:24:56.429Z,94693.00
2023-04-11T21:27:25.510Z,94697.34
2023-04-11T21:29:53.126Z,94695.69
2023-04-11T21:32:20.756Z,94687.38
2023-04-11T21:34:48.406Z,94674.69
2023-04-11T21:37:16.073Z,94670.97
2023-04-11T21:39:43.714Z,94660.97
2023-04-11T21:42:11.376Z,94661.78
2023-04-11T21:44:40.384Z,94662.38
2023-04-11T21:47:08.204Z,94655.34
2023-04-11T21:49:36.174Z,94654.75
2023-04-11T21:52:03.792Z,94653.53
2023-04-11T21:54:31.473Z,94653.53
2023-04-11T21:56:59.094Z,94653.97
2023-04-11T21:59:26.718Z,94650.50
2023-04-11T22:01:55.810Z,94649.69
2023-04-11T22:04:23.618Z,94646.59
2023-04-11T22:06:51.358Z,94643.72
2023-04-11T22:09:19.785Z,94645.63
2023-04-11T22:11:47.917Z,94636.97
2023-04-11T22:14:16.430Z,94624.75
2023-04-11T22:16:48.821Z,94617.50
2023-04-11T22:19:19.101Z,94626.63
2023-04-11T22:21:48.690Z,94618.53
2023-04-11T22:24:16.407Z,94625.59
2023-04-11T22:26:48.726Z,94614.78
2023-04-11T22:29:18.136Z,94615.22
2023-04-11T22:31:47.678Z,94611.47
2023-04-11T22:34:15.881Z,94607.28
2023-04-11T22:36:45.180Z,94604.97
2023-04-11T22:39:12.865Z,94595.63
2023-04-11T22:41:40.480Z,94597.25
2023-04-11T22:44:08.153Z,94592.28
2023-04-11T22:46:38.953Z,94585.03
2023-04-11T22:49:06.905Z,94592.44
2023-04-11T22:51:34.529Z,94591.19
2023-04-11T22:54:03.556Z,94589.31
2023-04-11T22:56:31.317Z,94593.88
2023-04-11T22:58:58.948Z,94579.56
2023-04-11T23:01:26.619Z,94568.31
2023-04-11T23:03:54.396Z,94561.06
2023-04-11T23:06:22.381Z,94566.47
2023-04-11T23:08:50.027Z,94562.31
2023-04-11T23:11:20.311Z,94560.69
2023-04-11T23:13:47.968Z,94548.22
2023-04-11T23:16:15.699Z,94551.16
2023-04-11T23:18:43.362Z,94545.00
2023-04-11T23:21:13.133Z,94543.56
2023-04-11T23:23:41.562Z,94533.84
2023-04-11T23:26:09.259Z,94535.91
2023-04-11T23:28:38.760Z,94529.91
2023-04-11T23:31:06.705Z,94522.47
2023-04-11T23:33:35.356Z,94524.00
2023-04-11T23:36:03.035Z,94514.22
2023-04-11T23:38:31.000Z,94499.72
2023-04-11T23:40:59.208Z,94505.91
2023-04-11T23:43:26.885Z,94497.00
2023-04-11T23:45:56.059Z,94503.06
2023-04-11T23:48:23.679Z,94499.09
2023-04-11T23:50:51.377Z,94487.03
2023-04-11T23:53:18.984Z,94485.78
2023-04-11T23:55:46.811Z,94477.47
2023-04-11T23:58:14.456Z,94487.81
